Time;durP1;ratioP1;P1;durP2;ratioP2;P2;SDS_P1;SDS_P2;PMS_P1;PMS_P2;Temp;Humidity;BMP_temperature;BMP_pressure;BME280_temperature;BME280_humidity;BME280_pressure;Samples;Min_cycle;Max_cycle;Signal;HPM_P1;HPM_P2
2021/04/30 00:00:57;;;;;;;21.90;13.50;;;;;;;14.08;69.25;99353.48;1610521;87;31410;-74
2021/04/30 00:03:22;;;;;;;21.95;15.60;;;;;;;14.06;68.89;99357.34;1636353;86;25783;-74
2021/04/30 00:05:49;;;;;;;18.30;14.15;;;;;;;14.03;68.55;99352.52;1638279;86;32589;-74
2021/04/30 00:08:15;;;;;;;14.60;11.08;;;;;;;13.88;68.36;99333.09;1620505;86;25778;-74
2021/04/30 00:10:42;;;;;;;16.75;10.32;;;;;;;13.92;69.06;99351.37;1610722;87;25835;-73
2021/04/30 00:13:09;;;;;;;16.87;10.18;;;;;;;13.84;69.04;99355.05;1621271;86;25787;-74
2021/04/30 00:15:35;;;;;;;19.32;9.90;;;;;;;13.83;69.00;99353.45;1622178;86;26799;-73
2021/04/30 00:18:05;;;;;;;12.58;8.90;;;;;;;13.83;69.50;99357.88;1639737;86;25707;-73
2021/04/30 00:20:33;;;;;;;15.60;9.95;;;;;;;13.75;69.19;99354.49;1621991;86;33176;-74
2021/04/30 00:22:59;;;;;;;16.20;9.50;;;;;;;13.70;69.36;99349.06;1621292;86;25371;-73
2021/04/30 00:25:25;;;;;;;11.15;8.60;;;;;;;13.66;69.48;99351.80;1621643;86;31051;-74
2021/04/30 00:27:51;;;;;;;14.00;9.05;;;;;;;13.65;69.88;99353.34;1620337;86;25854;-73
2021/04/30 00:30:18;;;;;;;17.05;9.43;;;;;;;13.64;69.26;99356.48;1637671;86;32789;-73
2021/04/30 00:32:44;;;;;;;15.32;10.68;;;;;;;13.66;69.20;99352.31;1623095;86;25843;-73
2021/04/30 00:35:11;;;;;;;12.70;8.38;;;;;;;13.66;69.06;99346.55;1636436;86;33703;-73
2021/04/30 00:37:39;;;;;;;19.37;9.38;;;;;;;13.69;69.14;99347.95;1635931;86;26195;-73
2021/04/30 00:40:27;;;;;;;14.80;10.72;;;;;;;13.69;68.96;99347.95;1621142;86;26490;-74
2021/04/30 00:42:54;;;;;;;15.55;11.40;;;;;;;13.68;68.86;99345.83;1593212;88;26692;-73
2021/04/30 00:45:23;;;;;;;13.93;10.32;;;;;;;13.67;68.84;99349.48;1590170;88;25792;-74
2021/04/30 00:47:50;;;;;;;14.70;10.68;;;;;;;13.62;68.75;99349.82;1609856;87;26428;-74
2021/04/30 00:50:17;;;;;;;15.05;11.88;;;;;;;13.58;68.73;99348.61;1603623;88;26647;-74
2021/04/30 00:52:43;;;;;;;15.32;12.75;;;;;;;13.54;68.68;99353.48;1607625;87;25760;-74
2021/04/30 00:55:13;;;;;;;19.02;16.87;;;;;;;13.53;68.87;99359.73;1609322;87;32618;-74
2021/04/30 00:57:43;;;;;;;20.62;18.40;;;;;;;13.48;68.79;99370.08;1583337;89;26402;-73
2021/04/30 01:00:11;;;;;;;20.80;16.02;;;;;;;13.48;69.11;99374.02;1592712;88;25728;-74
2021/04/30 01:02:39;;;;;;;18.45;14.63;;;;;;;13.46;69.00;99368.96;1582131;89;25744;-74
2021/04/30 01:05:07;;;;;;;13.10;9.70;;;;;;;13.47;68.91;99369.77;1583302;89;26634;-73
2021/04/30 01:07:34;;;;;;;15.23;12.90;;;;;;;13.49;69.09;99370.37;1581726;89;25404;-73
2021/04/30 01:10:00;;;;;;;19.32;16.87;;;;;;;13.47;68.89;99369.77;1593792;88;26459;-73
2021/04/30 01:12:26;;;;;;;19.45;17.37;;;;;;;13.45;68.91;99365.22;1593672;88;25813;-73
2021/04/30 01:14:53;;;;;;;17.25;15.45;;;;;;;13.44;69.05;99357.86;1592760;88;25792;-74
2021/04/30 01:17:19;;;;;;;15.58;12.90;;;;;;;13.42;68.94;99353.34;1592405;88;25944;-74
2021/04/30 01:19:44;;;;;;;18.98;15.03;;;;;;;13.46;69.10;99368.16;1583054;89;33098;-74
2021/04/30 01:22:10;;;;;;;17.62;11.97;;;;;;;13.46;69.10;99368.16;1592964;88;25832;-73
2021/04/30 01:24:36;;;;;;;15.83;11.45;;;;;;;13.42;69.49;99363.02;1592877;88;33202;-73
2021/04/30 01:27:03;;;;;;;17.73;15.10;;;;;;;13.35;69.03;99365.67;1592408;88;26654;-70
2021/04/30 01:29:29;;;;;;;18.40;16.48;;;;;;;13.34;69.24;99365.39;1592623;88;25983;-70
2021/04/30 01:31:56;;;;;;;17.40;14.15;;;;;;;13.32;69.01;99366.89;1592812;88;33082;-70
2021/04/30 01:34:22;;;;;;;16.85;12.65;;;;;;;13.31;69.05;99364.47;1609680;87;25796;-70
2021/04/30 01:36:49;;;;;;;17.15;14.98;;;;;;;13.27;69.21;99369.84;1592967;88;25742;-70
2021/04/30 01:39:15;;;;;;;13.70;10.48;;;;;;;13.24;69.50;99361.05;1593488;88;25824;-70
2021/04/30 01:41:43;;;;;;;16.82;12.68;;;;;;;13.22;69.80;99365.17;1593523;88;25837;-71
2021/04/30 01:44:12;;;;;;;17.17;14.98;;;;;;;13.20;69.34;99366.39;1592427;89;26134;-70
2021/04/30 01:46:41;;;;;;;17.23;13.72;;;;;;;13.20;69.69;99365.08;1603326;87;26430;-70
2021/04/30 01:49:09;;;;;;;18.27;16.10;;;;;;;13.17;69.45;99368.13;1590488;87;26113;-70
2021/04/30 01:51:36;;;;;;;14.03;11.63;;;;;;;13.09;69.76;99369.14;1608316;87;26684;-74
2021/04/30 01:54:04;;;;;;;12.13;8.98;;;;;;;13.05;69.70;99374.52;1582927;89;25370;-74
2021/04/30 01:56:30;;;;;;;10.72;7.60;;;;;;;13.04;69.79;99379.44;1607593;89;26361;-74
2021/04/30 01:58:56;;;;;;;10.13;7.45;;;;;;;13.03;69.94;99381.77;1582567;89;26424;-74
2021/04/30 02:01:21;;;;;;;17.42;8.75;;;;;;;13.04;70.00;99379.44;1592798;88;33196;-73
2021/04/30 02:03:47;;;;;;;12.37;9.50;;;;;;;13.01;69.97;99371.51;1592405;88;29750;-73
2021/04/30 02:06:13;;;;;;;12.65;9.88;;;;;;;13.00;69.91;99377.74;1583116;89;34974;-73
2021/04/30 02:08:39;;;;;;;11.15;9.25;;;;;;;13.01;70.00;99369.36;1592443;88;33380;-73
2021/04/30 02:11:05;;;;;;;12.18;9.85;;;;;;;13.00;70.11;99373.81;1593184;88;26728;-74
2021/04/30 02:13:32;;;;;;;13.05;8.85;;;;;;;13.02;70.10;99372.30;1582405;89;26490;-73
2021/04/30 02:15:58;;;;;;;11.53;7.42;;;;;;;13.04;70.13;99376.34;1592986;88;26042;-73
2021/04/30 02:18:25;;;;;;;11.83;7.58;;;;;;;13.04;70.23;99375.51;1581422;89;25736;-73
2021/04/30 02:20:52;;;;;;;11.33;7.60;;;;;;;13.04;70.20;99368.95;1593074;88;26606;-73
2021/04/30 02:23:19;;;;;;;11.15;7.97;;;;;;;13.07;70.37;99370.67;1582196;89;26882;-74
2021/04/30 02:25:46;;;;;;;12.23;7.62;;;;;;;13.05;70.22;99367.45;1593334;89;25787;-73
2021/04/30 02:28:12;;;;;;;11.57;8.65;;;;;;;13.09;70.42;99369.98;1592753;88;25907;-73
2021/04/30 02:30:40;;;;;;;13.80;8.75;;;;;;;13.05;70.64;99371.38;1592770;88;26288;-73
2021/04/30 02:33:07;;;;;;;11.57;8.98;;;;;;;13.04;70.51;99370.27;1594364;88;26472;-73
2021/04/30 02:35:44;;;;;;;13.28;10.58;;;;;;;13.07;70.62;99381.17;1571638;89;25837;-73
2021/04/30 02:38:13;;;;;;;16.10;10.18;;;;;;;13.08;71.17;99384.59;1591997;88;25784;-74
2021/04/30 02:40:41;;;;;;;14.23;9.05;;;;;;;13.02;71.15;99382.80;1609362;87;25883;-73
2021/04/30 02:43:12;;;;;;;13.85;9.10;;;;;;;12.95;71.03;99384.62;1594068;88;25817;-74
2021/04/30 02:45:40;;;;;;;13.45;9.13;;;;;;;12.88;71.50;99385.44;1583469;89;26016;-73
2021/04/30 02:48:15;;;;;;;13.53;9.28;;;;;;;12.84;71.23;99389.98;1609108;87;26500;-74
2021/04/30 02:50:42;;;;;;;14.93;9.05;;;;;;;12.84;71.33;99384.73;1593965;88;25829;-73
2021/04/30 02:53:08;;;;;;;13.68;9.18;;;;;;;12.82;71.39;99389.36;1593595;88;25803;-70
2021/04/30 02:55:34;;;;;;;14.35;9.33;;;;;;;12.80;72.19;99390.09;1592193;88;25840;-70
2021/04/30 02:58:01;;;;;;;13.70;9.18;;;;;;;12.77;71.48;99391.81;1592870;88;25371;-70
2021/04/30 03:00:28;;;;;;;13.78;8.63;;;;;;;12.77;71.62;99385.27;1593686;88;26475;-70
2021/04/30 03:02:55;;;;;;;13.10;8.73;;;;;;;12.70;72.12;99383.14;1582797;89;25878;-70
2021/04/30 03:05:21;;;;;;;12.45;8.63;;;;;;;12.69;71.67;99386.78;1583404;90;25350;-70
2021/04/30 03:07:48;;;;;;;12.43;8.23;;;;;;;12.66;71.84;99391.41;1582593;89;25354;-70
2021/04/30 03:10:14;;;;;;;13.80;8.63;;;;;;;12.68;71.72;99393.02;1583219;89;25388;-70
2021/04/30 03:12:40;;;;;;;11.97;7.87;;;;;;;12.67;71.66;99398.77;1581293;89;25903;-70
2021/04/30 03:15:08;;;;;;;14.07;8.25;;;;;;;12.69;71.73;99399.37;1582500;89;33606;-70
2021/04/30 03:17:34;;;;;;;13.20;8.30;;;;;;;12.68;71.59;99399.56;1583766;89;25823;-70
2021/04/30 03:19:59;;;;;;;14.98;8.23;;;;;;;12.65;71.66;99386.36;1594015;88;34943;-70
2021/04/30 03:22:25;;;;;;;12.03;7.90;;;;;;;12.63;71.81;99394.44;1583612;89;32494;-70
2021/04/30 03:24:52;;;;;;;12.70;7.87;;;;;;;12.63;71.63;99391.82;1608492;87;25893;-70
2021/04/30 03:27:17;;;;;;;12.82;8.08;;;;;;;12.64;71.62;99398.66;1583008;89;25915;-70
2021/04/30 03:29:43;;;;;;;12.93;8.20;;;;;;;12.64;71.50;99396.55;1592770;88;29985;-70
2021/04/30 03:32:09;;;;;;;12.90;7.28;;;;;;;12.61;71.68;99405.63;1582782;89;34875;-73
2021/04/30 03:34:36;;;;;;;13.05;9.60;;;;;;;12.61;71.90;99405.63;1593900;88;32568;-73
2021/04/30 03:37:04;;;;;;;12.85;8.88;;;;;;;12.58;71.66;99410.48;1582541;89;26410;-73
2021/04/30 03:39:29;;;;;;;11.53;8.60;;;;;;;12.58;71.85;99414.41;1582787;89;25758;-73
2021/04/30 03:41:55;;;;;;;15.33;7.67;;;;;;;12.56;71.66;99429.02;1592513;88;30073;-73
2021/04/30 03:44:22;;;;;;;10.20;7.80;;;;;;;12.53;71.77;99427.30;1592602;88;25819;-73
2021/04/30 03:46:47;;;;;;;12.75;7.35;;;;;;;12.49;72.34;99441.30;1593414;88;32680;-73
2021/04/30 03:49:13;;;;;;;12.73;8.80;;;;;;;12.49;72.34;99441.30;1583586;89;25831;-73
2021/04/30 03:51:39;;;;;;;10.85;7.90;;;;;;;12.35;71.80;99424.75;1593891;88;33839;-73
2021/04/30 03:54:05;;;;;;;15.00;8.43;;;;;;;12.35;71.80;99424.75;1592680;88;26604;-73
2021/04/30 03:56:31;;;;;;;10.85;7.45;;;;;;;12.48;71.83;99455.41;1592998;88;25712;-73
2021/04/30 03:58:57;;;;;;;14.00;7.83;;;;;;;12.46;71.77;99452.69;1580942;89;33160;-73
2021/04/30 04:01:23;;;;;;;10.87;7.20;;;;;;;12.36;71.89;99441.30;1609819;87;26418;-74
2021/04/30 04:03:56;;;;;;;11.07;7.50;;;;;;;12.43;71.71;99459.94;1610142;87;31731;-74
2021/04/30 04:06:21;;;;;;;12.60;7.12;;;;;;;12.39;71.65;99455.31;1592249;88;25880;-74
2021/04/30 04:08:47;;;;;;;12.80;7.62;;;;;;;12.36;71.67;99461.76;1583703;89;25978;-73
2021/04/30 04:11:13;;;;;;;9.05;7.12;;;;;;;12.34;71.72;99457.21;1593498;88;32534;-74
2021/04/30 04:13:39;;;;;;;12.73;7.63;;;;;;;12.34;71.70;99455.90;1600864;88;26018;-74
2021/04/30 04:16:05;;;;;;;11.50;6.70;;;;;;;12.33;71.70;99465.26;1593199;88;31815;-74
2021/04/30 04:18:31;;;;;;;10.15;6.67;;;;;;;12.29;72.07;99467.98;1593034;88;25410;-74
2021/04/30 04:20:57;;;;;;;13.18;7.25;;;;;;;12.23;71.71;99463.55;1582556;89;35477;-74
2021/04/30 04:23:23;;;;;;;11.57;7.33;;;;;;;12.22;71.69;99474.50;1591777;88;32668;-74
2021/04/30 04:25:49;;;;;;;12.05;6.90;;;;;;;12.25;71.80;99475.92;1583336;89;25853;-74
2021/04/30 04:28:15;;;;;;;9.67;6.23;;;;;;;12.26;71.56;99478.36;1593832;88;31483;-74
2021/04/30 04:30:41;;;;;;;10.55;7.25;;;;;;;12.27;71.56;99476.03;1582932;89;25726;-74
2021/04/30 04:33:08;;;;;;;13.65;7.28;;;;;;;12.23;71.60;99484.50;1593539;88;43805;-74
2021/04/30 04:35:34;;;;;;;16.35;7.53;;;;;;;12.21;71.48;99484.69;1592931;88;32545;-73
2021/04/30 04:38:00;;;;;;;12.37;7.78;;;;;;;12.20;71.37;99481.27;1581701;89;25840;-73
2021/04/30 04:40:26;;;;;;;11.93;8.23;;;;;;;12.15;71.33;99486.28;1593533;89;32255;-73
2021/04/30 04:42:53;;;;;;;12.98;8.28;;;;;;;12.12;71.35;99489.80;1593757;88;25834;-74
2021/04/30 04:45:20;;;;;;;15.13;9.28;;;;;;;12.09;71.38;99488.89;1592188;88;25848;-73
2021/04/30 04:47:46;;;;;;;18.42;9.78;;;;;;;12.04;71.47;99486.85;1582406;89;25730;-73
2021/04/30 04:50:14;;;;;;;14.55;9.93;;;;;;;12.05;71.49;99492.89;1591273;88;25939;-73
2021/04/30 04:52:41;;;;;;;15.20;9.83;;;;;;;12.04;71.51;99493.41;1592768;88;25863;-73
2021/04/30 04:55:11;;;;;;;15.78;8.08;;;;;;;12.06;71.48;99496.64;1582567;89;26576;-73
2021/04/30 04:57:42;;;;;;;20.15;8.53;;;;;;;12.09;71.52;99500.68;1592765;88;25865;-73
2021/04/30 05:00:11;;;;;;;12.15;7.50;;;;;;;12.10;71.42;99502.28;1582317;89;25777;-73
2021/04/30 05:02:38;;;;;;;11.75;7.50;;;;;;;12.09;71.60;99500.17;1581776;89;25798;-73
2021/04/30 05:05:07;;;;;;;10.32;6.67;;;;;;;12.04;71.31;99501.26;1587315;88;25847;-73
2021/04/30 05:07:33;;;;;;;10.45;7.10;;;;;;;12.06;71.33;99501.05;1582577;89;25841;-70
2021/04/30 05:09:58;;;;;;;10.38;7.65;;;;;;;12.10;71.55;99505.70;1593716;88;25834;-70
2021/04/30 05:12:24;;;;;;;14.80;7.80;;;;;;;12.14;71.33;99499.09;1581626;89;32594;-70
2021/04/30 05:14:50;;;;;;;10.65;7.45;;;;;;;12.20;71.29;99516.63;1593897;88;26251;-70
2021/04/30 05:17:17;;;;;;;14.43;8.00;;;;;;;12.26;71.08;99520.78;1593119;88;31460;-70
2021/04/30 05:19:43;;;;;;;11.88;7.90;;;;;;;12.29;71.13;99522.50;1593759;88;26510;-70
2021/04/30 05:22:11;;;;;;;12.85;8.25;;;;;;;12.31;70.99;99528.87;1582736;89;25810;-70
2021/04/30 05:24:37;;;;;;;14.35;9.53;;;;;;;12.31;70.99;99515.26;1594112;88;25771;-70
2021/04/30 05:27:09;;;;;;;11.50;9.08;;;;;;;12.32;70.81;99523.41;1592834;88;26523;-70
2021/04/30 05:29:34;;;;;;;12.20;8.85;;;;;;;12.39;70.76;99520.32;1592356;88;25716;-71
2021/04/30 05:32:00;;;;;;;11.73;9.40;;;;;;;12.44;70.62;99523.67;1593993;88;30606;-70
2021/04/30 05:34:26;;;;;;;17.80;9.60;;;;;;;12.52;70.46;99528.73;1582993;89;34824;-70
2021/04/30 05:36:52;;;;;;;13.20;9.10;;;;;;;12.61;70.38;99528.84;1594511;88;32616;-70
2021/04/30 05:39:18;;;;;;;14.90;8.50;;;;;;;12.68;70.19;99519.66;1584019;89;26008;-70
2021/04/30 05:41:44;;;;;;;13.00;8.23;;;;;;;12.77;69.58;99521.11;1594508;88;31879;-70
2021/04/30 05:44:10;;;;;;;11.63;8.33;;;;;;;12.83;69.19;99518.19;1582850;89;30565;-70
2021/04/30 05:46:35;;;;;;;14.33;10.00;;;;;;;12.89;68.94;99526.56;1593023;88;35473;-70
2021/04/30 05:49:01;;;;;;;13.40;9.88;;;;;;;12.89;68.26;99523.42;1610712;87;32584;-70
2021/04/30 05:51:27;;;;;;;14.00;11.43;;;;;;;12.82;68.17;99530.50;1582462;89;25844;-70
2021/04/30 05:53:53;;;;;;;16.80;10.98;;;;;;;12.80;68.17;99535.64;1593123;88;33623;-70
2021/04/30 05:56:19;;;;;;;13.27;9.57;;;;;;;12.81;68.00;99534.62;1594540;88;31415;-70
2021/04/30 05:58:45;;;;;;;12.88;9.43;;;;;;;12.88;68.39;99540.69;1583119;89;34959;-70
2021/04/30 06:01:10;;;;;;;13.62;8.98;;;;;;;12.99;68.43;99544.03;1595082;88;32983;-73
2021/04/30 06:03:36;;;;;;;12.68;8.78;;;;;;;13.13;68.19;99544.03;1584638;89;25769;-73
2021/04/30 06:06:02;;;;;;;14.25;8.53;;;;;;;13.21;67.97;99542.02;1592876;88;33310;-73
2021/04/30 06:08:28;;;;;;;14.90;9.28;;;;;;;13.28;67.25;99544.14;1593532;88;25907;-73
2021/04/30 06:10:54;;;;;;;15.80;10.85;;;;;;;13.27;66.65;99554.34;1609819;87;34922;-73
2021/04/30 06:13:20;;;;;;;14.78;10.32;;;;;;;13.26;66.53;99551.43;1582741;89;32719;-73
2021/04/30 06:15:46;;;;;;;19.55;10.58;;;;;;;13.20;66.11;99544.83;1565675;89;25801;-73
2021/04/30 06:18:12;;;;;;;16.67;11.33;;;;;;;13.31;66.00;99559.52;1594134;88;31990;-73
2021/04/30 06:20:38;;;;;;;15.20;11.13;;;;;;;13.30;65.72;99564.44;1592928;88;31410;-73
2021/04/30 06:23:04;;;;;;;15.58;11.38;;;;;;;13.30;65.57;99564.44;1583745;89;26589;-73
2021/04/30 06:25:30;;;;;;;18.85;11.35;;;;;;;13.36;65.62;99560.19;1590733;87;32624;-73
2021/04/30 06:27:56;;;;;;;14.90;11.65;;;;;;;13.29;65.56;99551.53;1593418;88;25873;-74
2021/04/30 06:30:22;;;;;;;18.73;11.95;;;;;;;13.46;65.21;99573.72;1609760;87;32787;-73
2021/04/30 06:32:48;;;;;;;12.90;10.72;;;;;;;13.51;64.93;99572.61;1594250;88;31764;-72
2021/04/30 06:35:13;;;;;;;14.65;10.18;;;;;;;13.44;63.72;99556.05;1594531;88;34971;-73
2021/04/30 06:37:39;;;;;;;13.72;10.23;;;;;;;13.44;63.72;99556.05;1592832;88;32670;-73
2021/04/30 06:40:08;;;;;;;20.70;11.48;;;;;;;13.61;64.01;99583.20;1593665;88;26056;-73
2021/04/30 06:42:34;;;;;;;13.38;10.65;;;;;;;13.66;63.74;99580.77;1609008;86;25626;-75
2021/04/30 06:45:01;;;;;;;13.60;10.55;;;;;;;13.71;63.95;99574.41;1591958;88;25822;-75
2021/04/30 06:47:27;;;;;;;14.20;9.78;;;;;;;13.77;63.93;99582.77;1593471;88;34969;-76
2021/04/30 06:49:53;;;;;;;13.55;10.20;;;;;;;13.88;63.93;99582.14;1583156;89;26029;-77
2021/04/30 06:52:19;;;;;;;15.48;10.00;;;;;;;14.01;63.37;99580.50;1608603;87;26631;-77
2021/04/30 06:54:45;;;;;;;17.62;11.83;;;;;;;14.11;63.15;99581.69;1608904;87;25874;-75
2021/04/30 06:57:15;;;;;;;15.10;11.35;;;;;;;14.14;62.65;99577.84;1602517;87;29978;-76
2021/04/30 06:59:39;;;;;;;14.38;10.85;;;;;;;14.19;62.57;99570.94;1609378;87;25839;-76
2021/04/30 07:02:05;;;;;;;13.38;10.13;;;;;;;14.29;62.51;99576.25;1591491;87;32726;-76
2021/04/30 07:04:32;;;;;;;12.75;10.13;;;;;;;14.28;60.11;99578.59;1595332;88;25625;-77
2021/04/30 07:06:57;;;;;;;14.13;11.70;;;;;;;14.27;60.42;99581.73;1595493;88;25428;-77
2021/04/30 07:09:23;;;;;;;14.50;10.48;;;;;;;14.24;60.37;99583.95;1595590;88;31286;-77
2021/04/30 07:11:49;;;;;;;14.15;10.63;;;;;;;14.27;60.47;99581.73;1595499;88;34867;-78
2021/04/30 07:14:15;;;;;;;14.35;11.08;;;;;;;14.13;60.69;99556.02;1593386;88;32677;-77
2021/04/30 07:16:40;;;;;;;16.57;11.05;;;;;;;14.28;60.19;99585.97;1593908;88;25912;-75
2021/04/30 07:19:06;;;;;;;14.47;11.40;;;;;;;14.31;60.72;99590.00;1594970;88;33262;-76
2021/04/30 07:21:32;;;;;;;12.78;10.78;;;;;;;14.41;60.85;99588.55;1608533;87;30548;-72
2021/04/30 07:23:58;;;;;;;15.98;11.38;;;;;;;14.51;59.80;99593.85;1594890;88;35456;-74
2021/04/30 07:26:24;;;;;;;14.10;11.43;;;;;;;14.54;59.44;99592.14;1593659;88;25855;-76
2021/04/30 07:28:50;;;;;;;15.83;11.68;;;;;;;14.57;60.41;99595.70;1610964;87;25771;-74
2021/04/30 07:31:16;;;;;;;16.40;10.85;;;;;;;14.69;60.22;99601.09;1582792;89;33791;-76
2021/04/30 07:33:47;;;;;;;11.75;10.25;;;;;;;14.80;59.73;99600.42;1594598;88;32066;-76
2021/04/30 07:36:14;;;;;;;14.23;11.40;;;;;;;14.90;59.69;99601.29;1610235;87;25323;-76
2021/04/30 07:38:41;;;;;;;13.90;10.98;;;;;;;14.99;57.76;99603.95;1592655;88;25796;-75
2021/04/30 07:41:10;;;;;;;20.57;11.65;;;;;;;15.01;57.81;99603.23;1609604;87;26150;-75
2021/04/30 07:43:36;;;;;;;15.50;10.85;;;;;;;15.11;57.48;99607.50;1582819;89;25850;-75
2021/04/30 07:46:03;;;;;;;16.15;12.00;;;;;;;15.17;55.86;99626.90;1594086;88;25832;-74
2021/04/30 07:48:29;;;;;;;15.32;11.90;;;;;;;15.14;56.16;99618.11;1609188;87;25757;-75
2021/04/30 07:51:02;;;;;;;15.70;11.70;;;;;;;15.08;56.67;99609.25;1593416;88;25753;-74
2021/04/30 07:53:33;;;;;;;14.33;12.23;;;;;;;15.08;55.36;99613.99;1610459;87;25866;-74
2021/04/30 07:56:00;;;;;;;14.58;12.07;;;;;;;15.02;55.52;99609.59;1592398;88;25632;-74
2021/04/30 07:58:27;;;;;;;18.57;10.85;;;;;;;15.02;55.26;99610.10;1592018;88;25765;-74
2021/04/30 08:00:56;;;;;;;12.30;9.23;;;;;;;15.05;54.53;99610.47;1593262;88;25828;-75
2021/04/30 08:03:23;;;;;;;14.35;8.80;;;;;;;15.12;52.90;99610.96;1593191;88;25883;-75
2021/04/30 08:05:51;;;;;;;13.58;8.40;;;;;;;15.11;52.57;99610.13;1593092;88;25782;-74
2021/04/30 08:08:17;;;;;;;13.40;8.35;;;;;;;15.09;52.38;99618.77;1580666;89;25851;-75
2021/04/30 08:10:43;;;;;;;10.18;8.03;;;;;;;15.09;51.98;99616.14;1593936;88;25853;-75
2021/04/30 08:13:10;;;;;;;12.37;7.67;;;;;;;15.10;52.33;99623.01;1584128;89;35454;-75
2021/04/30 08:15:36;;;;;;;12.05;8.63;;;;;;;15.07;51.43;99609.77;1592108;88;25793;-75
2021/04/30 08:18:03;;;;;;;15.03;9.50;;;;;;;15.02;52.25;99614.85;1581767;89;25916;-74
2021/04/30 08:20:29;;;;;;;11.03;8.20;;;;;;;14.96;52.01;99622.80;1582774;89;25764;-75
2021/04/30 08:22:55;;;;;;;11.55;7.83;;;;;;;14.98;50.70;99624.72;1583711;89;31414;-75
2021/04/30 08:25:21;;;;;;;10.75;8.48;;;;;;;15.00;50.49;99610.81;1594387;88;34812;-73
2021/04/30 08:27:47;;;;;;;11.48;7.92;;;;;;;15.10;51.23;99630.39;1594421;88;25945;-73
2021/04/30 08:30:15;;;;;;;11.18;6.95;;;;;;;15.20;47.90;99616.77;1565316;89;25863;-75
2021/04/30 08:32:41;;;;;;;10.40;7.30;;;;;;;15.27;49.24;99622.77;1593736;88;25805;-73
2021/04/30 08:35:08;;;;;;;11.83;8.10;;;;;;;15.36;48.10;99645.73;1565426;89;26116;-73
2021/04/30 08:37:34;;;;;;;12.10;7.47;;;;;;;15.24;48.96;99623.72;1594817;88;25785;-75
2021/04/30 08:40:00;;;;;;;10.53;7.37;;;;;;;15.22;48.67;99641.06;1595150;88;33605;-74
2021/04/30 08:42:28;;;;;;;10.08;7.30;;;;;;;15.27;49.16;99645.67;1596792;88;27228;-73
2021/04/30 08:44:54;;;;;;;13.55;7.00;;;;;;;15.31;49.40;99640.29;1585349;89;25913;-74
2021/04/30 08:47:21;;;;;;;10.82;7.28;;;;;;;15.39;46.96;99648.44;1585455;89;25999;-71
2021/04/30 08:49:51;;;;;;;13.30;8.43;;;;;;;15.27;46.97;99656.20;1583588;89;25817;-76
2021/04/30 08:52:17;;;;;;;12.55;8.35;;;;;;;15.22;48.14;99639.75;1593604;88;27868;-76
2021/04/30 08:54:45;;;;;;;12.53;8.68;;;;;;;15.27;48.50;99646.47;1582684;89;25821;-75
2021/04/30 08:57:11;;;;;;;12.40;9.03;;;;;;;15.27;49.41;99633.82;1593369;88;26892;-74
2021/04/30 08:59:37;;;;;;;12.13;8.20;;;;;;;15.36;50.19;99647.04;1594428;88;26079;-75
2021/04/30 09:02:04;;;;;;;11.80;8.33;;;;;;;15.41;49.29;99624.00;1593551;88;25727;-75
2021/04/30 09:04:32;;;;;;;11.25;8.15;;;;;;;15.43;49.36;99632.50;1582527;89;25812;-73
2021/04/30 09:07:15;;;;;;;11.05;8.50;;;;;;;15.52;49.27;99650.47;1583696;89;25878;-74
2021/04/30 09:10:12;;;;;;;13.10;8.30;;;;;;;15.49;47.89;99644.28;1611138;87;25383;-74
2021/04/30 09:12:39;;;;;;;12.95;8.83;;;;;;;15.46;47.88;99646.03;1593689;88;25901;-75
2021/04/30 09:15:10;;;;;;;10.58;8.70;;;;;;;15.45;48.42;99650.22;1593223;88;25794;-76
2021/04/30 09:17:36;;;;;;;12.68;9.40;;;;;;;15.41;49.40;99638.48;1604254;87;25766;-74
2021/04/30 09:20:04;;;;;;;13.13;10.20;;;;;;;15.40;50.06;99642.14;1566697;90;26160;-75
2021/04/30 09:22:35;;;;;;;12.98;9.85;;;;;;;15.48;50.13;99650.58;1594125;88;25834;-74
2021/04/30 09:25:05;;;;;;;13.43;10.95;;;;;;;15.54;50.42;99649.72;1566352;89;25830;-75
2021/04/30 09:27:38;;;;;;;;;;;;;;;15.56;49.67;99648.20;1611358;87;26565;-75
2021/04/30 09:30:31;;;;;;;14.55;11.75;;;;;;;15.43;49.38;99651.73;1608428;87;25846;-75
2021/04/30 09:33:20;;;;;;;15.13;11.35;;;;;;;15.37;50.20;99652.59;1593410;88;25856;-73
2021/04/30 09:35:55;;;;;;;17.98;11.88;;;;;;;15.42;49.91;99649.33;1609343;87;26606;-73
2021/04/30 09:38:28;;;;;;;14.70;11.68;;;;;;;15.46;50.18;99654.45;1584259;90;25823;-74
2021/04/30 09:41:10;;;;;;;13.20;10.70;;;;;;;15.42;48.72;99650.64;1593313;88;26558;-73
2021/04/30 09:43:53;;;;;;;14.03;10.93;;;;;;;15.37;48.76;99657.86;1610943;87;25920;-73
2021/04/30 09:46:35;;;;;;;13.78;10.60;;;;;;;15.38;48.91;99673.95;1592874;89;25797;-71
2021/04/30 09:49:09;;;;;;;14.13;10.90;;;;;;;15.53;49.08;99673.66;1610050;87;26073;-74
2021/04/30 09:51:44;;;;;;;15.23;10.58;;;;;;;15.47;48.62;99666.09;1593449;88;25820;-76
2021/04/30 09:54:25;;;;;;;16.52;10.32;;;;;;;15.53;48.56;99668.39;1607444;87;25857;-76
2021/04/30 09:57:23;;;;;;;15.30;10.18;;;;;;;15.62;47.71;99667.60;1610575;87;26676;-76
2021/04/30 10:00:10;;;;;;;15.15;11.95;;;;;;;15.55;47.69;99668.98;1594644;88;25810;-76
2021/04/30 10:02:40;;;;;;;13.58;10.72;;;;;;;15.57;47.96;99681.41;1595156;88;25895;-74
2021/04/30 10:05:14;;;;;;;13.58;11.38;;;;;;;15.63;48.63;99685.01;1595923;88;25847;-75
2021/04/30 10:07:42;;;;;;;17.40;11.10;;;;;;;15.70;48.35;99681.34;1595084;88;25869;-74
2021/04/30 10:10:14;;;;;;;17.23;11.53;;;;;;;15.80;48.97;99689.29;1594117;88;25911;-74
2021/04/30 10:12:45;;;;;;;14.85;10.43;;;;;;;15.84;47.88;99682.55;1582169;89;25964;-75
2021/04/30 10:15:15;;;;;;;15.60;13.00;;;;;;;15.79;46.85;99675.80;1582500;89;25905;-73
2021/04/30 10:17:41;;;;;;;14.53;10.98;;;;;;;15.64;47.34;99684.01;1594126;89;26463;-73
2021/04/30 10:20:14;;;;;;;15.50;10.25;;;;;;;15.63;47.68;99681.89;1610361;87;25816;-74
2021/04/30 10:22:44;;;;;;;13.58;10.53;;;;;;;15.64;47.03;99690.59;1594606;88;26676;-75
2021/04/30 10:25:17;;;;;;;12.68;9.38;;;;;;;15.51;46.55;99692.80;1595029;88;25762;-73
2021/04/30 10:27:54;;;;;;;14.83;9.45;;;;;;;15.44;46.85;99694.67;1584256;89;25812;-75
2021/04/30 10:30:46;;;;;;;19.52;9.75;;;;;;;15.53;47.27;99696.05;1593791;88;25801;-74
2021/04/30 10:33:57;;;;;;;12.00;8.43;;;;;;;15.61;45.51;99727.39;1593684;88;25916;-75
2021/04/30 10:36:31;;;;;;;13.95;8.75;;;;;;;15.56;45.28;99706.66;1594548;88;25880;-75
2021/04/30 10:38:57;;;;;;;12.93;9.18;;;;;;;15.62;45.68;99709.75;1604850;87;26435;-74
2021/04/30 10:41:39;;;;;;;14.47;8.75;;;;;;;15.60;44.71;99734.18;1604521;87;25376;-74
2021/04/30 10:44:28;;;;;;;12.18;8.30;;;;;;;15.44;43.97;99730.22;1604087;87;25745;-75
2021/04/30 10:47:11;;;;;;;12.03;8.50;;;;;;;15.49;45.50;99734.34;1567219;90;25854;-73
2021/04/30 10:49:37;;;;;;;12.68;7.80;;;;;;;15.46;44.57;99728.99;1581722;89;25744;-76
2021/04/30 10:52:22;;;;;;;11.53;8.15;;;;;;;15.52;44.97;99733.92;1582501;89;25889;-76
2021/04/30 10:55:04;;;;;;;10.55;7.97;;;;;;;15.60;44.19;99741.56;1603671;87;25795;-76
2021/04/30 10:57:52;;;;;;;12.60;8.15;;;;;;;15.58;43.48;99730.94;1604163;87;25746;-75
2021/04/30 11:00:26;;;;;;;11.65;7.62;;;;;;;15.47;43.46;99740.36;1610734;87;25838;-76
2021/04/30 11:03:20;;;;;;;13.08;8.28;;;;;;;15.45;43.74;99739.24;1593819;88;25781;-77
2021/04/30 11:06:04;;;;;;;11.90;7.33;;;;;;;15.43;44.04;99741.79;1584316;89;26558;-76
2021/04/30 11:08:48;;;;;;;9.15;7.95;;;;;;;15.35;43.91;99751.26;1594486;88;25874;-68
2021/04/30 11:11:16;;;;;;;12.65;7.85;;;;;;;15.46;44.42;99733.46;1584072;89;25776;-69
2021/04/30 11:13:45;;;;;;;10.25;7.95;;;;;;;15.53;43.53;99748.20;1593104;89;25805;-69
2021/04/30 11:16:11;;;;;;;10.70;7.60;;;;;;;15.50;43.98;99743.88;1604490;87;25773;-69
2021/04/30 11:19:00;;;;;;;12.28;8.50;;;;;;;15.51;44.03;99746.80;1610979;87;25691;-70
2021/04/30 11:21:43;;;;;;;10.78;7.92;;;;;;;15.40;44.02;99743.53;1592942;88;25817;-69
2021/04/30 11:24:40;;;;;;;9.83;7.87;;;;;;;15.49;44.83;99737.78;1578568;89;25767;-74
2021/04/30 11:27:13;;;;;;;13.35;8.60;;;;;;;15.66;44.07;99742.05;1582177;89;26639;-74
2021/04/30 11:29:41;;;;;;;14.33;9.10;;;;;;;15.64;43.61;99754.63;1585312;88;25713;-75